createdAt,value
2018-12-10T00:00:54.526Z,80.16
2018-12-10T00:01:54.530Z,79.90
2018-12-10T00:02:54.509Z,80.27
2018-12-10T00:03:54.512Z,80.16
2018-12-10T00:04:54.523Z,80.06
2018-12-10T00:05:54.491Z,79.55
2018-12-10T00:06:54.597Z,79.34
2018-12-10T00:07:54.465Z,79.24
2018-12-10T00:08:54.447Z,79.44
2018-12-10T00:09:54.463Z,79.14
2018-12-10T00:10:54.425Z,79.03
2018-12-10T00:11:54.534Z,79.14
2018-12-10T00:12:54.434Z,79.24
2018-12-10T00:13:54.505Z,78.93
2018-12-10T00:14:54.382Z,78.93
2018-12-10T00:15:54.377Z,79.44
2018-12-10T00:16:54.377Z,79.24
2018-12-10T00:17:54.384Z,78.83
2018-12-10T00:18:54.339Z,78.21
2018-12-10T00:19:54.328Z,78.21
2018-12-10T00:20:54.331Z,78.62
2018-12-10T00:21:54.345Z,79.24
2018-12-10T00:22:54.303Z,79.34
2018-12-10T00:23:54.285Z,79.14
2018-12-10T00:24:54.350Z,78.97
2018-12-10T00:25:54.268Z,79.03
2018-12-10T00:26:54.289Z,78.83
2018-12-10T00:27:54.247Z,79.44
2018-12-10T00:28:54.243Z,78.72
2018-12-10T00:29:54.239Z,78.93
2018-12-10T00:30:54.231Z,78.52
2018-12-10T00:31:54.299Z,78.62
2018-12-10T00:32:54.204Z,78.62
2018-12-10T00:33:54.186Z,78.52
2018-12-10T00:34:54.234Z,78.31
2018-12-10T00:35:54.186Z,78.76
2018-12-10T00:36:54.229Z,78.55
2018-12-10T00:37:54.147Z,79.58
2018-12-10T00:38:54.144Z,78.62
2018-12-10T00:39:54.191Z,79.07
2018-12-10T00:40:54.127Z,78.21
2018-12-10T00:41:54.120Z,79.03
2018-12-10T00:42:54.097Z,78.41
2018-12-10T00:43:54.098Z,78.24
2018-12-10T00:44:54.078Z,77.42
2018-12-10T00:45:54.062Z,76.97
2018-12-10T00:46:54.079Z,76.97
2018-12-10T00:47:54.067Z,77.18
2018-12-10T00:48:54.079Z,76.76
2018-12-10T00:49:54.064Z,76.25
2018-12-10T00:50:54.108Z,76.35
2018-12-10T00:51:54.019Z,76.66
2018-12-10T00:52:53.988Z,75.73
2018-12-10T00:53:53.998Z,76.46
2018-12-10T00:54:53.977Z,76.35
2018-12-10T00:55:53.961Z,75.63
2018-12-10T00:56:53.973Z,75.12
2018-12-10T00:57:54.086Z,75.46
2018-12-10T00:58:53.944Z,75.22
2018-12-10T00:59:53.917Z,74.95
2018-12-10T01:00:53.917Z,74.91
2018-12-10T01:01:53.927Z,75.53
2018-12-10T01:02:53.885Z,75.12
2018-12-10T01:03:53.876Z,75.01
2018-12-10T01:04:54.010Z,75.12
2018-12-10T01:05:53.859Z,74.80
2018-12-10T01:06:53.867Z,75.12
2018-12-10T01:07:53.836Z,74.71
2018-12-10T01:08:53.832Z,74.40
2018-12-10T01:09:53.828Z,75.32
2018-12-10T01:10:53.819Z,74.91
2018-12-10T01:11:53.812Z,75.01
2018-12-10T01:12:53.784Z,74.80
2018-12-10T01:13:53.774Z,75.01
2018-12-10T01:14:53.760Z,75.12
2018-12-10T01:15:53.753Z,75.73
2018-12-10T01:16:53.785Z,75.22
2018-12-10T01:17:53.731Z,75.22
2018-12-10T01:18:53.722Z,74.91
2018-12-10T01:19:53.723Z,75.26
2018-12-10T01:20:53.716Z,75.77
2018-12-10T01:21:53.710Z,75.53
2018-12-10T01:22:53.685Z,75.26
2018-12-10T01:23:53.671Z,75.67
2018-12-10T01:24:53.662Z,76.49
2018-12-10T01:25:53.648Z,75.77
2018-12-10T01:26:53.666Z,75.77
2018-12-10T01:27:53.643Z,75.63
2018-12-10T01:28:53.618Z,75.32
2018-12-10T01:29:53.609Z,75.05
2018-12-10T01:30:53.608Z,74.95
2018-12-10T01:31:53.589Z,75.36
2018-12-10T01:32:53.606Z,74.53
2018-12-10T01:33:53.565Z,74.22
2018-12-10T01:34:53.556Z,74.36
2018-12-10T01:35:53.547Z,75.49
2018-12-10T01:36:53.536Z,75.81
2018-12-10T01:37:53.542Z,75.81
2018-12-10T01:38:53.531Z,76.32
2018-12-10T01:39:53.512Z,76.21
2018-12-10T01:40:53.494Z,76.32
2018-12-10T01:41:53.484Z,76.73
2018-12-10T01:42:53.505Z,76.63
2018-12-10T01:43:53.467Z,76.21
2018-12-10T01:44:53.469Z,76.32
2018-12-10T01:45:53.443Z,76.12
2018-12-10T01:46:53.544Z,76.01
2018-12-10T01:47:53.446Z,75.70
2018-12-10T01:48:53.414Z,76.32
2018-12-10T01:49:53.413Z,76.25
2018-12-10T01:50:53.403Z,76.56
2018-12-10T01:51:53.381Z,76.25
2018-12-10T01:52:53.398Z,76.87
2018-12-10T01:53:53.364Z,76.77
2018-12-10T01:54:53.353Z,76.67
2018-12-10T01:55:53.342Z,76.46
2018-12-10T01:56:53.345Z,76.87
2018-12-10T01:57:53.345Z,75.95
2018-12-10T01:58:53.323Z,76.25
2018-12-10T01:59:53.314Z,76.15
2018-12-10T02:00:53.288Z,76.35
2018-12-10T02:01:53.284Z,76.46
2018-12-10T02:02:53.288Z,76.87
2018-12-10T02:03:53.264Z,76.35
2018-12-10T02:04:53.256Z,76.25
2018-12-10T02:05:53.245Z,76.56
2018-12-10T02:06:53.245Z,76.35
2018-12-10T02:07:53.248Z,76.56
2018-12-10T02:08:53.207Z,76.98
2018-12-10T02:09:53.211Z,76.77
2018-12-10T02:10:53.188Z,76.87
2018-12-10T02:11:53.179Z,77.18
2018-12-10T02:12:53.196Z,76.32
2018-12-10T02:13:53.157Z,76.42
2018-12-10T02:14:53.158Z,76.46
2018-12-10T02:15:53.147Z,76.15
2018-12-10T02:16:53.127Z,76.42
2018-12-10T02:17:53.147Z,76.67
2018-12-10T02:18:53.106Z,75.63
2018-12-10T02:19:53.099Z,75.84
2018-12-10T02:20:53.098Z,76.77
2018-12-10T02:21:53.088Z,75.84
2018-12-10T02:22:53.084Z,76.25
2018-12-10T02:23:53.055Z,76.35
2018-12-10T02:24:53.045Z,76.56
2018-12-10T02:25:53.039Z,76.56
2018-12-10T02:26:53.036Z,76.77
2018-12-10T02:27:53.087Z,76.77
2018-12-10T02:28:53.009Z,76.56
2018-12-10T02:29:52.995Z,76.77
2018-12-10T02:30:52.997Z,76.35
2018-12-10T02:31:52.976Z,76.35
2018-12-10T02:32:52.982Z,76.56
2018-12-10T02:33:52.972Z,76.56
2018-12-10T02:34:52.961Z,76.67
2018-12-10T02:35:52.944Z,76.87
2018-12-10T02:36:52.922Z,76.35
2018-12-10T02:37:52.931Z,76.35
2018-12-10T02:38:52.910Z,76.67
2018-12-10T02:39:52.893Z,76.98
2018-12-10T02:40:52.881Z,76.56
2018-12-10T02:41:52.876Z,76.35
2018-12-10T02:42:52.887Z,76.35
2018-12-10T02:43:52.855Z,76.46
2018-12-10T02:44:52.845Z,75.84
2018-12-10T02:45:52.838Z,76.35
2018-12-10T02:46:52.842Z,76.25
2018-12-10T02:47:52.850Z,76.35
2018-12-10T02:48:52.805Z,76.35
2018-12-10T02:49:52.791Z,76.67
2018-12-10T02:50:52.783Z,76.35
2018-12-10T02:51:52.774Z,76.46
2018-12-10T02:52:52.782Z,76.35
2018-12-10T02:53:52.749Z,76.39
2018-12-10T02:54:52.751Z,76.46
2018-12-10T02:55:52.735Z,76.46
2018-12-10T02:56:52.719Z,76.15
2018-12-10T02:57:52.738Z,76.35
2018-12-10T02:58:52.707Z,76.15
2018-12-10T02:59:52.716Z,76.77
2018-12-10T03:00:52.677Z,77.08
2018-12-10T03:01:52.669Z,77.63
2018-12-10T03:02:52.675Z,76.98
2018-12-10T03:03:52.650Z,76.90
2018-12-10T03:04:52.639Z,77.53
2018-12-10T03:05:52.645Z,77.73
2018-12-10T03:06:52.619Z,78.56
2018-12-10T03:07:52.624Z,77.42
2018-12-10T03:08:52.596Z,77.18
2018-12-10T03:09:52.587Z,77.32
2018-12-10T03:10:52.616Z,77.01
2018-12-10T03:11:52.565Z,77.22
2018-12-10T03:12:52.573Z,77.53
2018-12-10T03:13:52.550Z,77.73
2018-12-10T03:14:52.534Z,77.42
2018-12-10T03:15:52.526Z,77.84
2018-12-10T03:16:52.512Z,77.63
2018-12-10T03:17:52.538Z,77.63
2018-12-10T03:18:52.490Z,77.42
2018-12-10T03:19:52.511Z,77.39
2018-12-10T03:20:52.957Z,78.01
2018-12-10T03:21:52.468Z,76.87
2018-12-10T03:22:52.452Z,76.81
2018-12-10T03:23:52.487Z,76.87
2018-12-10T03:24:52.436Z,77.08
2018-12-10T03:25:52.434Z,76.87
2018-12-10T03:26:52.410Z,76.98
2018-12-10T03:27:52.399Z,77.49
2018-12-10T03:28:52.412Z,76.98
2018-12-10T03:29:52.383Z,77.22
2018-12-10T03:30:52.373Z,76.77
2018-12-10T03:31:52.358Z,76.87
2018-12-10T03:32:52.347Z,76.90
2018-12-10T03:33:52.532Z,77.32
2018-12-10T03:34:52.332Z,77.84
2018-12-10T03:35:52.318Z,77.84
2018-12-10T03:36:52.316Z,77.42
2018-12-10T03:37:52.301Z,77.32
2018-12-10T03:38:52.361Z,77.42
2018-12-10T03:39:52.276Z,77.11
2018-12-10T03:40:52.261Z,76.70
2018-12-10T03:41:52.255Z,77.04
2018-12-10T03:42:52.245Z,77.98
2018-12-10T03:43:52.251Z,78.77
2018-12-10T03:44:52.225Z,78.18
2018-12-10T03:45:52.212Z,78.05
2018-12-10T03:46:52.221Z,77.42
2018-12-10T03:47:52.221Z,77.22
2018-12-10T03:48:52.200Z,77.32
2018-12-10T03:49:52.177Z,77.01
2018-12-10T03:50:52.161Z,77.77
2018-12-10T03:51:52.160Z,77.32
2018-12-10T03:52:52.141Z,76.81
2018-12-10T03:53:52.160Z,77.15
2018-12-10T03:54:52.130Z,77.04
2018-12-10T03:55:52.115Z,76.70
2018-12-10T03:56:52.100Z,76.84
2018-12-10T03:57:52.091Z,76.94
2018-12-10T03:58:52.115Z,77.04
2018-12-10T03:59:52.074Z,76.73
2018-12-10T04:00:52.079Z,76.73
2018-12-10T04:01:52.056Z,76.73
2018-12-10T04:02:52.070Z,76.64
2018-12-10T04:03:52.054Z,77.25
2018-12-10T04:04:52.025Z,76.94
2018-12-10T04:05:52.018Z,76.98
2018-12-10T04:06:52.007Z,77.04
2018-12-10T04:07:52.000Z,77.19
2018-12-10T04:08:52.012Z,76.87
2018-12-10T04:09:51.966Z,76.94
2018-12-10T04:10:51.956Z,76.84
2018-12-10T04:11:51.968Z,77.04
2018-12-10T04:12:51.948Z,76.77
2018-12-10T04:13:51.945Z,76.87
2018-12-10T04:14:51.934Z,76.98
2018-12-10T04:15:51.909Z,76.98
2018-12-10T04:16:51.903Z,77.19
2018-12-10T04:17:51.890Z,76.91
2018-12-10T04:18:51.898Z,76.98
2018-12-10T04:19:51.866Z,76.98
2018-12-10T04:20:51.858Z,77.84
2018-12-10T04:21:51.870Z,78.56
2018-12-10T04:22:51.841Z,78.25
2018-12-10T04:23:51.846Z,78.67
2018-12-10T04:24:51.821Z,78.77
2018-12-10T04:25:51.822Z,78.46
2018-12-10T04:26:51.795Z,77.50
2018-12-10T04:27:51.793Z,77.50
2018-12-10T04:28:51.799Z,77.60
2018-12-10T04:29:51.793Z,77.15
2018-12-10T04:30:51.784Z,76.84
2018-12-10T04:31:51.750Z,76.84
2018-12-10T04:32:51.736Z,76.73
2018-12-10T04:33:51.767Z,77.25
2018-12-10T04:34:51.716Z,77.15
2018-12-10T04:35:51.709Z,77.04
2018-12-10T04:36:51.700Z,76.84
2018-12-10T04:37:51.688Z,76.53
2018-12-10T04:38:51.693Z,76.73
2018-12-10T04:39:51.666Z,76.50
2018-12-10T04:40:51.656Z,76.53
2018-12-10T04:41:51.654Z,76.39
2018-12-10T04:42:51.652Z,76.53
2018-12-10T04:43:51.644Z,76.60
2018-12-10T04:44:51.619Z,75.67
2018-12-10T04:45:51.605Z,75.87
2018-12-10T04:46:51.594Z,75.46
2018-12-10T04:47:51.587Z,75.67
2018-12-10T04:48:51.597Z,74.95
2018-12-10T04:49:51.568Z,75.67
2018-12-10T04:50:51.554Z,75.67
2018-12-10T04:51:51.544Z,76.08
2018-12-10T04:52:51.532Z,75.67
2018-12-10T04:53:51.542Z,76.29
2018-12-10T04:54:51.519Z,75.98
2018-12-10T04:55:51.506Z,75.91
2018-12-10T04:56:51.497Z,75.91
2018-12-10T04:57:51.490Z,75.39
2018-12-10T04:58:51.493Z,75.29
2018-12-10T04:59:52.895Z,75.81
2018-12-10T05:00:51.453Z,75.49
2018-12-10T05:01:51.456Z,76.43
2018-12-10T05:02:51.439Z,76.53
2018-12-10T05:03:51.444Z,76.32
2018-12-10T05:04:51.412Z,76.64
2018-12-10T05:05:51.411Z,76.73
2018-12-10T05:06:51.391Z,76.53
2018-12-10T05:07:51.381Z,76.43
2018-12-10T05:08:51.397Z,76.01
2018-12-10T05:09:51.363Z,75.70
2018-12-10T05:10:51.355Z,75.36
2018-12-10T05:11:51.345Z,76.94
2018-12-10T05:12:51.331Z,76.94
2018-12-10T05:13:51.358Z,76.73
2018-12-10T05:14:51.318Z,76.67
2018-12-10T05:15:51.317Z,77.08
2018-12-10T05:16:51.291Z,76.84
2018-12-10T05:17:51.279Z,76.84
2018-12-10T05:18:51.271Z,76.77
2018-12-10T05:19:51.314Z,77.08
2018-12-10T05:20:51.259Z,76.53
2018-12-10T05:21:51.245Z,76.67
2018-12-10T05:22:51.237Z,76.87
2018-12-10T05:23:51.229Z,76.84
2018-12-10T05:24:51.226Z,77.08
2018-12-10T05:25:51.213Z,76.87
2018-12-10T05:26:51.193Z,77.56
2018-12-10T05:27:51.185Z,76.98
2018-12-10T05:28:51.178Z,76.87
2018-12-10T05:29:51.185Z,77.08
2018-12-10T05:30:51.150Z,76.98
2018-12-10T05:31:51.138Z,76.87
2018-12-10T05:32:51.128Z,76.98
2018-12-10T05:33:51.121Z,77.22
2018-12-10T05:34:51.142Z,77.19
2018-12-10T05:35:51.102Z,76.98
2018-12-10T05:36:51.103Z,77.29
2018-12-10T05:37:51.078Z,76.87
2018-12-10T05:38:51.082Z,76.87
2018-12-10T05:39:51.095Z,77.08
2018-12-10T05:40:51.053Z,77.15
2018-12-10T05:41:51.036Z,76.84
2018-12-10T05:42:51.030Z,77.50
2018-12-10T05:43:51.014Z,76.98
2018-12-10T05:44:51.042Z,76.94
2018-12-10T05:45:50.993Z,76.84
2018-12-10T05:46:51.007Z,76.94
2018-12-10T05:47:50.981Z,76.84
2018-12-10T05:48:50.966Z,76.94
2018-12-10T05:49:50.975Z,77.08
2018-12-10T05:50:50.943Z,76.77
2018-12-10T05:51:50.937Z,76.98
2018-12-10T05:52:50.924Z,76.73
2018-12-10T05:53:50.915Z,76.73
2018-12-10T05:54:50.920Z,77.25
2018-12-10T05:55:50.899Z,77.15
2018-12-10T05:56:50.883Z,76.94
2018-12-10T05:57:50.873Z,76.84
2018-12-10T05:58:50.879Z,77.08
2018-12-10T05:59:50.876Z,76.94
2018-12-10T06:00:50.848Z,77.04
2018-12-10T06:01:50.838Z,77.39
2018-12-10T06:02:50.823Z,77.60
2018-12-10T06:03:50.813Z,77.39
2018-12-10T06:04:50.834Z,77.08
2018-12-10T06:05:50.792Z,77.70
2018-12-10T06:06:50.781Z,77.29
2018-12-10T06:07:50.775Z,77.53
2018-12-10T06:08:50.762Z,78.74
2018-12-10T06:09:51.268Z,78.25
2018-12-10T06:10:50.745Z,78.67
2018-12-10T06:11:50.731Z,78.84
2018-12-10T06:12:50.728Z,78.74
2018-12-10T06:13:50.713Z,78.53
2018-12-10T06:14:50.724Z,78.63
2018-12-10T06:15:50.691Z,78.94
2018-12-10T06:16:50.686Z,78.42
2018-12-10T06:17:50.669Z,78.53
2018-12-10T06:18:50.666Z,78.84
2018-12-10T06:19:50.667Z,78.63
2018-12-10T06:20:50.639Z,78.22
2018-12-10T06:21:50.636Z,78.53
2018-12-10T06:22:50.621Z,78.63
2018-12-10T06:23:50.666Z,78.84
2018-12-10T06:24:51.495Z,78.94
2018-12-10T06:25:50.589Z,78.32
2018-12-10T06:26:50.579Z,78.53
2018-12-10T06:27:50.568Z,78.94
2018-12-10T06:28:50.558Z,78.84
2018-12-10T06:29:50.589Z,78.74
2018-12-10T06:30:50.540Z,77.77
2018-12-10T06:31:50.528Z,77.81
2018-12-10T06:32:50.521Z,77.91
2018-12-10T06:33:50.520Z,77.91
2018-12-10T06:34:50.533Z,78.42
2018-12-10T06:35:50.490Z,78.42
2018-12-10T06:36:50.520Z,78.32
2018-12-10T06:37:50.469Z,78.42
2018-12-10T06:38:50.460Z,78.63
2018-12-10T06:39:50.468Z,78.84
2018-12-10T06:40:50.448Z,78.01
2018-12-10T06:41:50.427Z,77.91
2018-12-10T06:42:50.444Z,77.91
2018-12-10T06:43:50.409Z,77.50
2018-12-10T06:44:50.419Z,77.29
2018-12-10T06:45:50.402Z,77.70
2018-12-10T06:46:50.376Z,77.29
2018-12-10T06:47:50.370Z,77.94
2018-12-10T06:48:50.364Z,78.56
2018-12-10T06:49:50.375Z,78.77
2018-12-10T06:50:50.336Z,78.67
2018-12-10T06:51:50.343Z,78.46
2018-12-10T06:52:50.317Z,78.46
2018-12-10T06:53:50.306Z,78.25
2018-12-10T06:54:50.317Z,78.05
2018-12-10T06:55:50.285Z,78.25
2018-12-10T06:56:50.288Z,78.98
2018-12-10T06:57:50.267Z,78.88
2018-12-10T06:58:50.261Z,78.77
2018-12-10T06:59:50.278Z,78.77
2018-12-10T07:00:50.239Z,78.77
2018-12-10T07:01:50.247Z,78.36
2018-12-10T07:02:50.214Z,78.42
2018-12-10T07:03:50.208Z,78.53
2018-12-10T07:04:50.324Z,78.56
2018-12-10T07:05:50.194Z,77.60
2018-12-10T07:06:50.173Z,77.81
2018-12-10T07:07:50.167Z,77.50
2018-12-10T07:08:50.157Z,77.29
2018-12-10T07:09:50.144Z,76.87
2018-12-10T07:10:50.162Z,77.29
2018-12-10T07:11:50.124Z,77.50
2018-12-10T07:12:50.119Z,77.29
2018-12-10T07:13:50.124Z,77.29
2018-12-10T07:14:50.097Z,77.33
2018-12-10T07:15:50.102Z,77.64
2018-12-10T07:16:50.074Z,77.53
2018-12-10T07:17:50.063Z,77.60
2018-12-10T07:18:50.055Z,77.94
2018-12-10T07:19:50.053Z,78.05
2018-12-10T07:20:50.054Z,78.05
2018-12-10T07:21:50.022Z,78.77
2018-12-10T07:22:50.013Z,78.46
2018-12-10T07:23:50.003Z,77.84
2018-12-10T07:24:49.991Z,77.84
2018-12-10T07:25:50.014Z,77.53
2018-12-10T07:26:49.970Z,77.74
2018-12-10T07:27:49.961Z,77.81
2018-12-10T07:28:49.951Z,77.22
2018-12-10T07:29:49.941Z,77.70
2018-12-10T07:30:49.949Z,77.33
2018-12-10T07:31:49.922Z,76.87
2018-12-10T07:32:49.926Z,77.29
2018-12-10T07:33:49.903Z,77.19
2018-12-10T07:34:49.890Z,77.70
2018-12-10T07:35:49.897Z,77.25
2018-12-10T07:36:49.871Z,76.73
2018-12-10T07:37:49.861Z,76.64
2018-12-10T07:38:49.861Z,76.64
2018-12-10T07:39:49.838Z,76.87
2018-12-10T07:40:49.851Z,76.64
2018-12-10T07:41:49.819Z,76.84
2018-12-10T07:42:49.812Z,76.94
2018-12-10T07:43:49.801Z,76.53
2018-12-10T07:44:49.803Z,76.43
2018-12-10T07:45:49.798Z,76.94
2018-12-10T07:46:49.768Z,76.64
2018-12-10T07:47:49.776Z,76.22
2018-12-10T07:48:49.747Z,76.64
2018-12-10T07:49:49.738Z,76.53
2018-12-10T07:50:49.746Z,76.43
2018-12-10T07:51:49.727Z,76.22
2018-12-10T07:52:49.705Z,76.50
2018-12-10T07:53:49.697Z,76.53
2018-12-10T07:54:49.687Z,76.43
2018-12-10T07:55:50.951Z,76.39
2018-12-10T07:56:49.668Z,76.50
2018-12-10T07:57:49.662Z,75.91
2018-12-10T07:58:49.647Z,75.87
2018-12-10T07:59:49.637Z,75.77
2018-12-10T08:00:49.652Z,75.49
2018-12-10T08:01:49.622Z,75.70
2018-12-10T08:02:49.606Z,75.91
2018-12-10T08:03:49.607Z,76.32
2018-12-10T08:04:49.589Z,76.22
2018-12-10T08:05:49.596Z,76.32
2018-12-10T08:06:49.565Z,76.43
2018-12-10T08:07:49.557Z,76.43
2018-12-10T08:08:50.349Z,76.12
2018-12-10T08:09:49.544Z,76.15
2018-12-10T08:10:49.551Z,76.12
2018-12-10T08:11:49.515Z,76.43
2018-12-10T08:12:49.511Z,76.22
2018-12-10T08:13:49.500Z,76.64
2018-12-10T08:14:49.485Z,76.73
2018-12-10T08:15:49.495Z,76.43
2018-12-10T08:16:49.462Z,76.53
2018-12-10T08:17:49.453Z,75.91
2018-12-10T08:18:49.442Z,75.91
2018-12-10T08:19:49.436Z,76.22
2018-12-10T08:20:49.442Z,76.87
2018-12-10T08:21:49.419Z,76.43
2018-12-10T08:22:49.405Z,76.46
2018-12-10T08:23:49.392Z,76.22
2018-12-10T08:24:49.383Z,76.56
2018-12-10T08:25:49.392Z,76.53
2018-12-10T08:26:49.367Z,76.46
2018-12-10T08:27:49.365Z,76.84
2018-12-10T08:28:49.346Z,76.43
2018-12-10T08:29:49.334Z,76.60
2018-12-10T08:30:49.342Z,76.08
2018-12-10T08:31:49.326Z,75.81
2018-12-10T08:32:49.306Z,75.39
2018-12-10T08:33:49.308Z,75.98
2018-12-10T08:34:49.280Z,76.84
2018-12-10T08:35:49.288Z,76.32
2018-12-10T08:36:49.261Z,76.39
2018-12-10T08:37:49.251Z,75.91
2018-12-10T08:38:49.239Z,76.73
2018-12-10T08:39:49.235Z,76.43
2018-12-10T08:40:49.238Z,76.53
2018-12-10T08:41:49.211Z,76.29
2018-12-10T08:42:49.201Z,76.32
2018-12-10T08:43:49.189Z,76.39
2018-12-10T08:44:49.272Z,76.53
2018-12-10T08:45:49.192Z,76.84
2018-12-10T08:46:49.176Z,76.32
2018-12-10T08:47:49.151Z,76.43
2018-12-10T08:48:49.140Z,76.43
2018-12-10T08:49:49.127Z,77.11
2018-12-10T08:50:49.201Z,76.29
2018-12-10T08:51:49.112Z,76.50
2018-12-10T08:52:49.107Z,76.84
2018-12-10T08:53:49.085Z,75.67
2018-12-10T08:54:49.081Z,76.08
2018-12-10T08:55:49.094Z,75.36
2018-12-10T08:56:49.056Z,76.39
2018-12-10T08:57:49.050Z,75.43
2018-12-10T08:58:49.045Z,75.22
2018-12-10T08:59:49.026Z,75.22
2018-12-10T09:00:49.015Z,75.26
2018-12-10T09:01:49.033Z,76.08
2018-12-10T09:02:48.998Z,75.53
2018-12-10T09:03:48.985Z,75.46
2018-12-10T09:04:48.975Z,75.46
2018-12-10T09:05:48.978Z,75.05
2018-12-10T09:06:48.980Z,75.22
2018-12-10T09:07:48.945Z,75.63
2018-12-10T09:08:48.936Z,74.71
2018-12-10T09:09:48.924Z,75.12
2018-12-10T09:10:48.916Z,74.19
2018-12-10T09:11:48.924Z,74.91
2018-12-10T09:12:48.892Z,74.50
2018-12-10T09:13:48.885Z,74.29
2018-12-10T09:14:48.871Z,75.12
2018-12-10T09:15:48.862Z,74.60
2018-12-10T09:16:48.876Z,73.77
2018-12-10T09:17:48.851Z,74.08
2018-12-10T09:18:48.834Z,73.77
2018-12-10T09:19:48.823Z,73.47
2018-12-10T09:20:48.814Z,73.36
2018-12-10T09:21:48.822Z,73.22
2018-12-10T09:22:48.789Z,72.81
2018-12-10T09:23:48.787Z,73.43
2018-12-10T09:24:48.770Z,73.85
2018-12-10T09:25:48.760Z,73.43
2018-12-10T09:26:48.767Z,73.54
2018-12-10T09:27:48.738Z,73.12
2018-12-10T09:28:48.731Z,73.12
2018-12-10T09:29:48.728Z,73.33
2018-12-10T09:30:48.712Z,73.74
2018-12-10T09:31:48.716Z,73.54
2018-12-10T09:32:48.687Z,73.64
2018-12-10T09:33:48.682Z,73.47
2018-12-10T09:34:48.668Z,74.19
2018-12-10T09:35:48.668Z,75.12
2018-12-10T09:36:48.673Z,74.91
2018-12-10T09:37:48.641Z,75.39
2018-12-10T09:38:48.626Z,74.71
2018-12-10T09:39:48.616Z,75.12
2018-12-10T09:40:48.606Z,75.12
2018-12-10T09:41:48.627Z,75.63
2018-12-10T09:42:48.591Z,75.53
2018-12-10T09:43:48.579Z,75.39
2018-12-10T09:44:48.568Z,75.09
2018-12-10T09:45:48.553Z,75.26
2018-12-10T09:46:48.579Z,74.08
2018-12-10T09:47:48.547Z,72.75
2018-12-10T09:48:48.529Z,72.71
2018-12-10T09:49:48.514Z,72.03
2018-12-10T09:50:48.577Z,70.62
2018-12-10T09:51:48.511Z,68.91
2018-12-10T09:52:48.484Z,69.05
2018-12-10T09:53:48.478Z,69.70
2018-12-10T09:54:48.464Z,69.29
2018-12-10T09:55:48.456Z,69.39
2018-12-10T09:56:48.460Z,70.32
2018-12-10T09:57:48.431Z,70.01
2018-12-10T09:58:48.420Z,69.49
2018-12-10T09:59:48.407Z,69.53
2018-12-10T10:00:48.400Z,69.73
2018-12-10T10:01:48.410Z,69.84
2018-12-10T10:02:48.379Z,69.84
2018-12-10T10:03:48.364Z,70.69
2018-12-10T10:04:48.351Z,70.86
2018-12-10T10:05:48.345Z,70.97
2018-12-10T10:06:48.353Z,70.69
2018-12-10T10:07:48.346Z,70.59
2018-12-10T10:08:49.649Z,70.79
2018-12-10T10:09:48.344Z,70.59
2018-12-10T10:10:48.288Z,70.48
2018-12-10T10:11:48.314Z,70.79
2018-12-10T10:12:48.274Z,71.72
2018-12-10T10:13:48.260Z,71.82
2018-12-10T10:14:48.246Z,71.41
2018-12-10T10:15:48.239Z,71.62
2018-12-10T10:16:48.254Z,70.83
2018-12-10T10:17:48.222Z,70.83
2018-12-10T10:18:48.219Z,71.24
2018-12-10T10:19:48.196Z,71.24
2018-12-10T10:20:48.187Z,71.65
2018-12-10T10:21:48.188Z,71.86
2018-12-10T10:22:48.161Z,71.55
2018-12-10T10:23:48.168Z,70.10
2018-12-10T10:24:48.143Z,70.10
2018-12-10T10:25:48.129Z,70.31
2018-12-10T10:26:48.139Z,70.21
2018-12-10T10:27:48.106Z,70.21
2018-12-10T10:28:48.096Z,70.31
2018-12-10T10:29:48.089Z,69.70
2018-12-10T10:30:48.077Z,69.70
2018-12-10T10:31:48.092Z,70.00
2018-12-10T10:32:48.092Z,69.49
2018-12-10T10:33:48.071Z,69.18
2018-12-10T10:34:48.064Z,69.15
2018-12-10T10:35:48.022Z,68.74
2018-12-10T10:36:48.065Z,68.02
2018-12-10T10:37:48.000Z,69.12
2018-12-10T10:38:48.006Z,68.23
2018-12-10T10:39:47.978Z,66.93
2018-12-10T10:40:47.983Z,65.44
2018-12-10T10:41:47.975Z,64.89
2018-12-10T10:42:47.956Z,63.64
2018-12-10T10:43:47.937Z,62.99
2018-12-10T10:44:48.014Z,61.83
2018-12-10T10:45:47.914Z,61.16
2018-12-10T10:46:47.967Z,61.06
2018-12-10T10:47:47.970Z,60.11
2018-12-10T10:48:47.967Z,59.73
2018-12-10T10:49:48.024Z,59.25
2018-12-10T10:50:48.010Z,60.10
2018-12-10T10:51:48.013Z,61.04
2018-12-10T10:52:47.863Z,61.99
2018-12-10T10:53:47.857Z,62.71
2018-12-10T10:54:48.089Z,62.95
2018-12-10T10:55:47.984Z,64.00
2018-12-10T10:56:47.997Z,64.85
2018-12-10T10:57:47.999Z,66.60
2018-12-10T10:58:47.929Z,67.24
2018-12-10T10:59:47.991Z,67.38
2018-12-10T11:00:47.982Z,67.68
2018-12-10T11:01:47.740Z,68.33
2018-12-10T11:02:48.027Z,68.74
2018-12-10T11:03:47.972Z,68.98
2018-12-10T11:04:47.708Z,69.09
2018-12-10T11:05:47.704Z,69.29
2018-12-10T11:06:47.690Z,69.42
2018-12-10T11:07:47.703Z,69.94
2018-12-10T11:08:47.670Z,70.45
2018-12-10T11:09:47.659Z,71.17
2018-12-10T11:10:47.651Z,71.58
2018-12-10T11:11:47.633Z,71.31
2018-12-10T11:12:47.640Z,71.82
2018-12-10T11:13:47.615Z,72.75
2018-12-10T11:14:47.601Z,72.27
2018-12-10T11:15:47.609Z,72.68
2018-12-10T11:16:47.579Z,72.37
2018-12-10T11:17:47.605Z,72.37
2018-12-10T11:18:47.568Z,72.27
2018-12-10T11:19:47.546Z,73.30
2018-12-10T11:20:47.536Z,72.99
2018-12-10T11:21:47.528Z,72.27
2018-12-10T11:22:47.538Z,73.30
2018-12-10T11:23:47.520Z,73.23
2018-12-10T11:24:47.496Z,74.67
2018-12-10T11:25:47.482Z,73.85
2018-12-10T11:26:47.474Z,73.33
2018-12-10T11:27:47.475Z,73.16
2018-12-10T11:28:47.451Z,73.68
2018-12-10T11:29:47.448Z,73.40
2018-12-10T11:30:47.432Z,73.88
2018-12-10T11:31:47.418Z,74.08
2018-12-10T11:32:47.425Z,73.68
2018-12-10T11:33:47.526Z,73.33
2018-12-10T11:34:47.386Z,73.13
2018-12-10T11:35:47.379Z,72.68
2018-12-10T11:36:47.376Z,72.78
2018-12-10T11:37:47.373Z,73.30
2018-12-10T11:38:47.345Z,72.99
2018-12-10T11:39:47.337Z,73.61
2018-12-10T11:40:47.323Z,72.34
2018-12-10T11:41:47.312Z,72.09
2018-12-10T11:42:47.323Z,71.79
2018-12-10T11:43:47.289Z,71.55
2018-12-10T11:44:47.278Z,70.79
2018-12-10T11:45:47.271Z,69.15
2018-12-10T11:46:47.261Z,69.29
2018-12-10T11:47:47.361Z,69.94
2018-12-10T11:48:47.262Z,70.90
2018-12-10T11:49:47.239Z,72.06
2018-12-10T11:50:47.218Z,72.47
2018-12-10T11:51:47.221Z,72.58
2018-12-10T11:52:47.217Z,72.16
2018-12-10T11:53:47.184Z,72.47
2018-12-10T11:54:47.176Z,72.51
2018-12-10T11:55:47.167Z,72.61
2018-12-10T11:56:47.153Z,73.40
2018-12-10T11:57:47.190Z,72.27
2018-12-10T11:58:47.128Z,72.47
2018-12-10T11:59:47.124Z,72.16
2018-12-10T12:00:47.112Z,72.78
2018-12-10T12:01:47.101Z,73.19
2018-12-10T12:02:47.101Z,73.50
2018-12-10T12:03:47.077Z,73.19
2018-12-10T12:04:47.129Z,73.71
2018-12-10T12:05:47.105Z,73.71
2018-12-10T12:06:47.050Z,73.47
2018-12-10T12:07:47.110Z,73.50
2018-12-10T12:08:47.028Z,73.30
2018-12-10T12:09:47.009Z,74.02
2018-12-10T12:10:47.015Z,76.49
2018-12-10T12:11:46.990Z,75.25
2018-12-10T12:12:46.998Z,73.81
2018-12-10T12:13:47.106Z,73.61
2018-12-10T12:14:46.956Z,74.43
2018-12-10T12:15:46.962Z,75.08
2018-12-10T12:16:46.934Z,74.26
2018-12-10T12:17:46.939Z,75.32
2018-12-10T12:18:46.926Z,76.35
2018-12-10T12:19:47.113Z,76.21
2018-12-10T12:20:46.897Z,76.76
2018-12-10T12:21:47.067Z,76.76
2018-12-10T12:22:46.895Z,76.97
2018-12-10T12:23:47.068Z,76.76
2018-12-10T12:24:46.883Z,76.76
2018-12-10T12:25:46.842Z,76.66
2018-12-10T12:26:46.826Z,76.56
2018-12-10T12:27:46.834Z,76.53
2018-12-10T12:28:46.805Z,76.25
2018-12-10T12:29:46.795Z,75.63
2018-12-10T12:30:46.794Z,75.73
2018-12-10T12:31:46.775Z,76.39
2018-12-10T12:32:46.793Z,76.49
2018-12-10T12:33:46.754Z,76.39
2018-12-10T12:34:46.764Z,76.90
2018-12-10T12:35:46.783Z,76.80
2018-12-10T12:36:46.748Z,76.80
2018-12-10T12:37:46.715Z,76.59
2018-12-10T12:38:46.717Z,76.59
2018-12-10T12:39:46.703Z,76.18
2018-12-10T12:40:46.697Z,76.29
2018-12-10T12:41:46.679Z,76.29
2018-12-10T12:42:46.667Z,76.70
2018-12-10T12:43:46.672Z,76.80
2018-12-10T12:44:46.637Z,76.29
2018-12-10T12:45:46.626Z,76.49
2018-12-10T12:46:46.630Z,76.39
2018-12-10T12:47:46.607Z,76.59
2018-12-10T12:48:46.622Z,75.77
2018-12-10T12:49:46.622Z,75.56
2018-12-10T12:50:46.574Z,75.32
2018-12-10T12:51:46.572Z,75.73
2018-12-10T12:52:46.552Z,75.84